Lianping, China
Current Conditions -  °F | °C
As of 2:00 AM on Sunday 26 Oct 2014 (Local Time) from ZGGG Reporting Station
Haze Haze  
Wind Chill: 75°   Ceiling: Unl
Heat Index: 75°   Visibility: 2.8mi
Dew Point: 70°   Wind: 2mph
Humidity: 83%   Direction: 50°NE
Pressure: 30"   Gusts: NA
Location:  24.37°N, 114.48°E
Report Text: ZGGG 251800Z 05001MPS 4500 BR NSC 24/21 Q1016 NOSIG
Loading
Personal Weather Stations






























Interactive Weather Map
Tropical Storm Tracking
New forecast layout! Learn more

10-Day Weather Forecast

Advertisements
Track Severe Weather on mobile